createdAt,value
2023-04-11T00:00:55.655Z,19.50
2023-04-11T00:03:22.633Z,19.50
2023-04-11T00:05:49.698Z,19.50
2023-04-11T00:08:16.464Z,19.50
2023-04-11T00:10:44.989Z,19.50
2023-04-11T00:13:12.535Z,19.50
2023-04-11T00:15:39.290Z,19.50
2023-04-11T00:18:06.823Z,19.50
2023-04-11T00:20:33.705Z,19.50
2023-04-11T00:23:00.450Z,19.50
2023-04-11T00:25:27.210Z,19.50
2023-04-11T00:27:54.029Z,19.50
2023-04-11T00:30:20.864Z,19.50
2023-04-11T00:32:47.787Z,19.50
2023-04-11T00:35:14.460Z,19.50
2023-04-11T00:37:44.106Z,19.50
2023-04-11T00:40:13.033Z,19.50
2023-04-11T00:42:40.467Z,19.50
2023-04-11T00:45:07.705Z,19.50
2023-04-11T00:47:35.468Z,19.50
2023-04-11T00:50:02.790Z,19.50
2023-04-11T00:52:29.475Z,19.50
2023-04-11T00:54:56.160Z,19.50
2023-04-11T00:57:25.833Z,19.50
2023-04-11T00:59:52.634Z,19.50
2023-04-11T01:02:19.363Z,19.50
2023-04-11T01:04:46.460Z,19.50
2023-04-11T01:07:14.014Z,19.50
2023-04-11T01:09:42.036Z,19.50
2023-04-11T01:12:10.593Z,19.50
2023-04-11T01:14:37.507Z,19.50
2023-04-11T01:17:04.365Z,19.50
2023-04-11T01:19:31.263Z,19.50
2023-04-11T01:21:59.422Z,19.50
2023-04-11T01:24:28.748Z,19.50
2023-04-11T01:26:56.691Z,19.50
2023-04-11T01:29:23.470Z,19.50
2023-04-11T01:31:51.623Z,19.50
2023-04-11T01:34:19.386Z,19.50
2023-04-11T01:36:46.130Z,19.50
2023-04-11T01:39:13.087Z,19.50
2023-04-11T01:41:41.666Z,19.50
2023-04-11T01:44:08.423Z,19.50
2023-04-11T01:46:35.963Z,19.50
2023-04-11T01:49:02.956Z,19.50
2023-04-11T01:51:29.783Z,19.50
2023-04-11T01:53:56.443Z,19.50
2023-04-11T01:56:23.124Z,19.50
2023-04-11T01:58:50.112Z,19.50
2023-04-11T02:01:20.437Z,19.50
2023-04-11T02:03:47.351Z,19.50
2023-04-11T02:06:16.138Z,19.50
2023-04-11T02:08:43.732Z,19.50
2023-04-11T02:11:10.721Z,19.50
2023-04-11T02:13:37.639Z,19.50
2023-04-11T02:16:14.864Z,19.50
2023-04-11T02:18:43.110Z,19.50
2023-04-11T02:21:09.923Z,19.50
2023-04-11T02:23:36.958Z,19.50
2023-04-11T02:26:04.463Z,19.50
2023-04-11T02:28:31.101Z,19.50
2023-04-11T02:30:57.838Z,19.50
2023-04-11T02:33:24.504Z,19.50
2023-04-11T02:35:51.225Z,19.50
2023-04-11T02:38:17.824Z,19.50
2023-04-11T02:40:44.486Z,19.50
2023-04-11T02:43:11.085Z,19.50
2023-04-11T02:45:37.804Z,19.50
2023-04-11T02:48:05.024Z,19.50
2023-04-11T02:50:31.863Z,19.50
2023-04-11T02:52:58.505Z,19.50
2023-04-11T02:55:25.240Z,19.50
2023-04-11T02:57:51.943Z,19.50
2023-04-11T03:00:21.917Z,19.50
2023-04-11T03:02:49.386Z,20.70
2023-04-11T03:05:16.261Z,19.50
2023-04-11T03:07:44.066Z,19.50
2023-04-11T03:10:10.866Z,19.50
2023-04-11T03:12:37.532Z,19.50
2023-04-11T03:15:10.610Z,19.50
2023-04-11T03:17:37.234Z,21.10
2023-04-11T03:20:07.058Z,19.50
2023-04-11T03:22:33.689Z,19.50
2023-04-11T03:25:00.477Z,19.50
2023-04-11T03:27:27.072Z,19.50
2023-04-11T03:29:53.716Z,19.50
2023-04-11T03:32:20.348Z,19.50
2023-04-11T03:34:46.972Z,19.50
2023-04-11T03:37:13.665Z,19.50
2023-04-11T03:39:40.346Z,19.50
2023-04-11T03:42:07.002Z,19.50
2023-04-11T03:44:33.647Z,19.50
2023-04-11T03:47:00.337Z,19.50
2023-04-11T03:49:26.995Z,19.50
2023-04-11T03:51:53.650Z,19.50
2023-04-11T03:54:20.801Z,19.50
2023-04-11T03:56:47.357Z,19.50
2023-04-11T03:59:14.028Z,19.50
2023-04-11T04:01:40.669Z,19.50
2023-04-11T04:04:07.726Z,19.50
2023-04-11T04:06:34.415Z,19.50
2023-04-11T04:09:01.003Z,19.50
2023-04-11T04:11:27.613Z,19.50
2023-04-11T04:13:55.438Z,19.50
2023-04-11T04:16:22.501Z,19.50
2023-04-11T04:18:49.243Z,19.50
2023-04-11T04:21:16.629Z,19.50
2023-04-11T04:23:47.488Z,19.50
2023-04-11T04:26:17.592Z,19.50
2023-04-11T04:28:47.369Z,19.60
2023-04-11T04:31:15.449Z,19.60
2023-04-11T04:33:42.829Z,19.60
2023-04-11T04:36:12.353Z,19.60
2023-04-11T04:38:41.981Z,19.60
2023-04-11T04:41:14.866Z,19.50
2023-04-11T04:43:42.522Z,19.50
2023-04-11T04:46:09.418Z,19.50
2023-04-11T04:48:36.190Z,19.60
2023-04-11T04:51:04.512Z,19.60
2023-04-11T04:53:34.532Z,19.60
2023-04-11T04:56:01.927Z,19.60
2023-04-11T04:58:28.604Z,19.60
2023-04-11T05:00:58.170Z,19.60
2023-04-11T05:03:25.008Z,19.60
2023-04-11T05:05:51.789Z,19.60
2023-04-11T05:08:20.533Z,19.60
2023-04-11T05:10:47.202Z,19.70
2023-04-11T05:13:13.884Z,19.70
2023-04-11T05:15:46.499Z,19.70
2023-04-11T05:18:13.161Z,19.70
2023-04-11T05:20:39.765Z,19.70
2023-04-11T05:23:06.378Z,19.70
2023-04-11T05:25:33.061Z,19.70
2023-04-11T05:27:59.682Z,19.70
2023-04-11T05:30:26.415Z,19.80
2023-04-11T05:32:53.112Z,19.80
2023-04-11T05:35:19.696Z,19.80
2023-04-11T05:37:46.289Z,19.40
2023-04-11T05:40:12.915Z,19.80
2023-04-11T05:42:39.535Z,19.80
2023-04-11T05:45:06.745Z,19.90
2023-04-11T05:47:33.463Z,19.90
2023-04-11T05:50:00.292Z,19.90
2023-04-11T05:52:26.946Z,19.90
2023-04-11T05:54:53.573Z,20.00
2023-04-11T05:57:20.876Z,20.00
2023-04-11T05:59:49.821Z,20.10
2023-04-11T06:02:16.753Z,20.10
2023-04-11T06:04:43.534Z,20.10
2023-04-11T06:07:10.902Z,20.00
2023-04-11T06:09:39.089Z,20.00
2023-04-11T06:12:05.914Z,20.00
2023-04-11T06:14:32.680Z,20.00
2023-04-11T06:16:59.967Z,20.10
2023-04-11T06:19:26.617Z,20.00
2023-04-11T06:21:53.238Z,20.10
2023-04-11T06:24:38.369Z,20.10
2023-04-11T06:27:05.634Z,20.10
2023-04-11T06:29:32.597Z,20.20
2023-04-11T06:31:59.296Z,20.20
2023-04-11T06:34:26.038Z,20.20
2023-04-11T06:36:52.782Z,20.20
2023-04-11T06:39:20.052Z,20.20
2023-04-11T06:41:47.888Z,20.20
2023-04-11T06:44:15.170Z,20.20
2023-04-11T06:46:41.901Z,20.20
2023-04-11T06:49:09.344Z,20.20
2023-04-11T06:51:36.400Z,20.30
2023-04-11T06:54:04.071Z,20.30
2023-04-11T06:56:31.018Z,20.30
2023-04-11T06:58:57.866Z,20.30
2023-04-11T07:01:25.517Z,20.30
2023-04-11T07:03:55.668Z,20.30
2023-04-11T07:06:23.043Z,20.40
2023-04-11T07:08:51.657Z,20.40
2023-04-11T07:11:20.061Z,20.40
2023-04-11T07:13:47.136Z,20.40
2023-04-11T07:16:13.770Z,20.40
2023-04-11T07:18:40.706Z,20.40
2023-04-11T07:21:11.130Z,20.50
2023-04-11T07:23:37.724Z,20.40
2023-04-11T07:26:04.471Z,20.40
2023-04-11T07:28:34.084Z,20.40
2023-04-11T07:31:00.842Z,20.40
2023-04-11T07:33:27.477Z,20.40
2023-04-11T07:35:54.105Z,20.40
2023-04-11T07:38:27.321Z,20.50
2023-04-11T07:40:53.941Z,20.60
2023-04-11T07:43:20.544Z,20.50
2023-04-11T07:45:47.148Z,20.50
2023-04-11T07:48:13.761Z,20.50
2023-04-11T07:50:41.550Z,20.50
2023-04-11T07:53:08.216Z,20.50
2023-04-11T07:55:34.846Z,20.50
2023-04-11T07:58:01.455Z,20.50
2023-04-11T08:00:28.675Z,20.50
2023-04-11T08:02:58.787Z,20.50
2023-04-11T08:05:29.046Z,20.60
2023-04-11T08:07:55.985Z,20.50
2023-04-11T08:10:23.051Z,20.50
2023-04-11T08:12:50.477Z,20.50
2023-04-11T08:15:17.650Z,20.50
2023-04-11T08:17:45.416Z,20.50
2023-04-11T08:20:13.785Z,20.50
2023-04-11T08:22:44.390Z,20.50
2023-04-11T08:25:12.426Z,20.50
2023-04-11T08:27:40.015Z,20.60
2023-04-11T08:30:08.357Z,20.60
2023-04-11T08:32:38.545Z,20.60
2023-04-11T08:35:05.834Z,20.50
2023-04-11T08:37:32.543Z,20.50
2023-04-11T08:39:59.314Z,20.50
2023-04-11T08:42:30.586Z,20.50
2023-04-11T08:44:59.369Z,20.60
2023-04-11T08:47:26.876Z,20.60
2023-04-11T08:49:53.948Z,20.60
2023-04-11T08:52:21.580Z,20.60
2023-04-11T08:54:51.237Z,20.60
2023-04-11T08:57:26.004Z,20.70
2023-04-11T08:59:54.786Z,20.70
2023-04-11T09:02:21.551Z,20.70
2023-04-11T09:04:48.915Z,20.60
2023-04-11T09:07:16.860Z,20.70
2023-04-11T09:09:43.554Z,20.70
2023-04-11T09:12:10.544Z,20.60
2023-04-11T09:14:37.511Z,20.60
2023-04-11T09:17:06.541Z,20.70
2023-04-11T09:19:34.904Z,20.70
2023-04-11T09:22:05.759Z,20.70
2023-04-11T09:24:33.966Z,20.70
2023-04-11T09:27:19.536Z,20.70
2023-04-11T09:29:48.119Z,20.60
2023-04-11T09:32:34.680Z,20.60
2023-04-11T09:35:22.791Z,20.60
2023-04-11T09:37:59.503Z,20.70
2023-04-11T09:40:28.076Z,20.70
2023-04-11T09:43:03.262Z,20.60
2023-04-11T09:45:38.311Z,20.60
2023-04-11T09:48:12.055Z,20.60
2023-04-11T09:50:39.764Z,20.70
2023-04-11T09:53:06.884Z,20.70
2023-04-11T09:55:33.606Z,20.70
2023-04-11T09:58:00.506Z,20.70
2023-04-11T10:00:30.184Z,20.70
2023-04-11T10:02:57.023Z,20.70
2023-04-11T10:05:31.802Z,20.60
2023-04-11T10:08:14.352Z,20.60
2023-04-11T10:10:43.719Z,20.60
2023-04-11T10:13:32.280Z,20.70
2023-04-11T10:16:09.384Z,20.70
2023-04-11T10:18:37.346Z,20.70
2023-04-11T10:21:05.355Z,20.70
2023-04-11T10:24:08.952Z,20.70
2023-04-11T10:26:52.736Z,20.70
2023-04-11T10:29:31.253Z,20.70
2023-04-11T10:32:17.726Z,20.70
2023-04-11T10:34:50.420Z,20.70
2023-04-11T10:37:32.659Z,20.70
2023-04-11T10:40:04.424Z,20.70
2023-04-11T10:42:39.102Z,20.80
2023-04-11T10:45:22.113Z,20.70
2023-04-11T10:48:00.306Z,20.70
2023-04-11T10:50:26.959Z,20.70
2023-04-11T10:53:01.348Z,20.70
2023-04-11T10:55:29.298Z,20.70
2023-04-11T10:58:14.042Z,20.70
2023-04-11T11:00:49.651Z,20.70
2023-04-11T11:03:21.677Z,20.70
2023-04-11T11:05:58.349Z,20.70
2023-04-11T11:08:34.948Z,20.70
2023-04-11T11:11:08.714Z,20.70
2023-04-11T11:13:41.356Z,20.70
2023-04-11T11:16:09.580Z,20.70
2023-04-11T11:18:37.288Z,20.70
2023-04-11T11:21:04.745Z,20.70
2023-04-11T11:23:32.511Z,20.70
2023-04-11T11:26:00.209Z,20.70
2023-04-11T11:30:58.707Z,20.70
2023-04-11T11:33:26.680Z,20.70
2023-04-11T11:35:59.867Z,20.70
2023-04-11T11:38:28.431Z,20.70
2023-04-11T11:40:56.168Z,20.70
2023-04-11T11:43:22.942Z,20.70
2023-04-11T11:46:09.677Z,20.70
2023-04-11T11:48:36.722Z,20.70
2023-04-11T11:51:03.639Z,20.80
2023-04-11T11:53:30.336Z,20.80
2023-04-11T11:55:57.625Z,20.80
2023-04-11T11:58:25.712Z,20.80
2023-04-11T12:00:52.680Z,20.70
2023-04-11T12:03:29.812Z,20.70
2023-04-11T12:05:58.062Z,20.80
2023-04-11T12:08:24.761Z,20.80
2023-04-11T12:10:51.537Z,20.80
2023-04-11T12:13:23.492Z,20.80
2023-04-11T12:15:55.746Z,20.80
2023-04-11T12:18:24.306Z,20.70
2023-04-11T12:20:51.546Z,20.70
2023-04-11T12:23:18.972Z,20.80
2023-04-11T12:25:46.790Z,20.80
2023-04-11T12:28:13.876Z,20.80
2023-04-11T12:30:40.537Z,20.80
2023-04-11T12:33:07.320Z,20.80
2023-04-11T12:35:34.178Z,20.90
2023-04-11T12:38:01.156Z,21.00
2023-04-11T12:40:29.651Z,21.00
2023-04-11T12:42:57.477Z,21.10
2023-04-11T12:45:25.203Z,21.20
2023-04-11T12:47:52.320Z,21.30
2023-04-11T12:50:19.110Z,21.30
2023-04-11T12:52:45.812Z,21.30
2023-04-11T12:55:13.423Z,21.30
2023-04-11T12:57:41.001Z,21.30
2023-04-11T13:00:08.826Z,21.30
2023-04-11T13:02:43.135Z,21.30
2023-04-11T13:05:14.084Z,21.40
2023-04-11T13:07:41.417Z,21.40
2023-04-11T13:10:08.683Z,21.40
2023-04-11T13:12:41.085Z,21.40
2023-04-11T13:15:09.376Z,21.40
2023-04-11T13:17:36.090Z,21.50
2023-04-11T13:20:07.127Z,21.50
2023-04-11T13:22:33.968Z,21.60
2023-04-11T13:25:00.631Z,21.60
2023-04-11T13:27:27.541Z,21.60
2023-04-11T13:29:54.209Z,21.60
2023-04-11T13:32:21.056Z,21.60
2023-04-11T13:34:47.764Z,21.60
2023-04-11T13:37:14.492Z,21.70
2023-04-11T13:39:41.174Z,21.70
2023-04-11T13:42:07.929Z,21.70
2023-04-11T13:44:34.555Z,21.70
2023-04-11T13:47:02.820Z,21.70
2023-04-11T13:49:29.857Z,21.80
2023-04-11T13:51:56.557Z,21.80
2023-04-11T13:54:23.240Z,21.40
2023-04-11T13:56:50.023Z,21.20
2023-04-11T13:59:16.643Z,21.20
2023-04-11T14:01:43.328Z,21.10
2023-04-11T14:04:10.116Z,21.20
2023-04-11T14:06:37.474Z,21.30
2023-04-11T14:09:05.489Z,21.40
2023-04-11T14:11:32.234Z,21.10
2023-04-11T14:13:58.983Z,21.10
2023-04-11T14:16:25.836Z,21.30
2023-04-11T14:18:52.490Z,21.30
2023-04-11T14:21:19.312Z,21.40
2023-04-11T14:23:46.240Z,21.40
2023-04-11T14:26:12.873Z,21.40
2023-04-11T14:28:39.550Z,21.40
2023-04-11T14:31:06.539Z,21.40
2023-04-11T14:33:33.284Z,21.40
2023-04-11T14:36:00.667Z,21.40
2023-04-11T14:38:27.292Z,21.40
2023-04-11T14:40:54.028Z,21.40
2023-04-11T14:43:20.638Z,21.40
2023-04-11T14:45:47.668Z,21.40
2023-04-11T14:48:14.629Z,21.40
2023-04-11T14:50:41.239Z,21.40
2023-04-11T14:53:09.077Z,21.50
2023-04-11T14:55:39.125Z,21.70
2023-04-11T14:58:06.088Z,21.60
2023-04-11T15:00:32.696Z,21.60
2023-04-11T15:02:59.441Z,21.00
2023-04-11T15:05:26.573Z,20.70
2023-04-11T15:07:53.314Z,20.50
2023-04-11T15:10:24.805Z,20.50
2023-04-11T15:12:51.535Z,20.20
2023-04-11T15:15:18.189Z,20.20
2023-04-11T15:17:49.675Z,20.20
2023-04-11T15:20:17.103Z,20.20
2023-04-11T15:22:45.308Z,20.20
2023-04-11T15:25:14.724Z,20.20
2023-04-11T15:27:42.367Z,20.20
2023-04-11T15:30:10.097Z,20.20
2023-04-11T15:32:42.567Z,20.10
2023-04-11T15:35:09.856Z,20.10
2023-04-11T15:37:36.523Z,20.20
2023-04-11T15:40:05.984Z,20.60
2023-04-11T15:42:35.290Z,20.90
2023-04-11T15:45:02.543Z,21.20
2023-04-11T15:47:29.994Z,21.30
2023-04-11T15:49:56.853Z,21.40
2023-04-11T15:52:23.479Z,21.50
2023-04-11T15:54:52.832Z,21.50
2023-04-11T15:57:19.602Z,21.60
2023-04-11T15:59:46.284Z,21.60
2023-04-11T16:02:15.018Z,21.70
2023-04-11T16:04:44.034Z,21.70
2023-04-11T16:07:12.015Z,21.70
2023-04-11T16:09:38.988Z,21.70
2023-04-11T16:12:05.777Z,21.70
2023-04-11T16:14:32.370Z,21.70
2023-04-11T16:16:59.013Z,21.70
2023-04-11T16:19:25.665Z,21.80
2023-04-11T16:21:52.326Z,21.80
2023-04-11T16:24:18.988Z,21.80
2023-04-11T16:26:45.743Z,21.80
2023-04-11T16:29:12.534Z,21.80
2023-04-11T16:31:39.365Z,21.80
2023-04-11T16:34:06.172Z,21.80
2023-04-11T16:36:34.223Z,21.70
2023-04-11T16:39:01.688Z,21.30
2023-04-11T16:41:28.312Z,21.20
2023-04-11T16:43:55.362Z,21.10
2023-04-11T16:46:22.218Z,21.00
2023-04-11T16:48:48.925Z,20.90
2023-04-11T16:51:18.186Z,20.90
2023-04-11T16:53:45.859Z,20.80
2023-04-11T16:56:12.477Z,20.80
2023-04-11T16:58:39.069Z,20.80
2023-04-11T17:01:06.737Z,20.80
2023-04-11T17:03:33.638Z,20.70
2023-04-11T17:06:00.374Z,20.70
2023-04-11T17:08:26.967Z,20.80
2023-04-11T17:10:53.664Z,20.80
2023-04-11T17:13:20.324Z,20.70
2023-04-11T17:15:47.007Z,20.70
2023-04-11T17:18:14.767Z,20.70
2023-04-11T17:20:43.210Z,20.70
2023-04-11T17:23:10.183Z,20.70
2023-04-11T17:25:36.881Z,20.70
2023-04-11T17:28:03.718Z,20.70
2023-04-11T17:30:31.655Z,20.60
2023-04-11T17:32:58.511Z,20.60
2023-04-11T17:35:26.023Z,20.70
2023-04-11T17:37:52.632Z,20.70
2023-04-11T17:40:19.702Z,20.70
2023-04-11T17:42:46.525Z,20.70
2023-04-11T17:45:18.538Z,20.70
2023-04-11T17:47:47.167Z,20.60
2023-04-11T17:50:14.234Z,20.60
2023-04-11T17:52:43.078Z,20.60
2023-04-11T17:55:11.626Z,20.60
2023-04-11T17:57:38.826Z,20.60
2023-04-11T18:00:16.176Z,20.60
2023-04-11T18:02:46.447Z,20.60
2023-04-11T18:05:25.273Z,20.50
2023-04-11T18:07:54.408Z,20.50
2023-04-11T18:10:21.808Z,20.50
2023-04-11T18:12:52.657Z,20.50
2023-04-11T18:15:21.209Z,20.50
2023-04-11T18:17:48.058Z,20.50
2023-04-11T18:20:16.517Z,20.50
2023-04-11T18:22:45.933Z,20.50
2023-04-11T18:25:13.002Z,20.50
2023-04-11T18:27:41.080Z,20.50
2023-04-11T18:30:11.838Z,20.50
2023-04-11T18:32:43.516Z,20.40
2023-04-11T18:35:12.706Z,20.50
2023-04-11T18:37:40.913Z,20.40
2023-04-11T18:40:12.072Z,20.40
2023-04-11T18:42:45.278Z,20.40
2023-04-11T18:45:13.259Z,20.40
2023-04-11T18:47:46.061Z,20.40
2023-04-11T18:50:13.769Z,20.40
2023-04-11T18:52:40.482Z,20.40
2023-04-11T18:55:07.921Z,20.40
2023-04-11T18:57:38.126Z,20.40
2023-04-11T19:00:18.476Z,20.40
2023-04-11T19:02:46.673Z,20.40
2023-04-11T19:05:14.481Z,20.40
2023-04-11T19:07:42.042Z,20.30
2023-04-11T19:10:10.270Z,20.30
2023-04-11T19:12:37.385Z,20.30
2023-04-11T19:15:07.544Z,20.40
2023-04-11T19:17:35.447Z,20.30
2023-04-11T19:20:06.591Z,20.30
2023-04-11T19:22:34.269Z,20.30
2023-04-11T19:25:01.011Z,20.30
2023-04-11T19:27:27.855Z,20.30
2023-04-11T19:29:54.511Z,20.30
2023-04-11T19:32:21.156Z,20.40
2023-04-11T19:34:49.423Z,20.30
2023-04-11T19:37:16.565Z,20.30
2023-04-11T19:39:44.936Z,20.30
2023-04-11T19:42:12.422Z,20.20
2023-04-11T19:44:39.669Z,20.30
2023-04-11T19:47:06.346Z,20.20
2023-04-11T19:49:32.994Z,20.20
2023-04-11T19:51:59.638Z,20.20
2023-04-11T19:54:26.342Z,20.20
2023-04-11T19:56:53.345Z,20.20
2023-04-11T19:59:20.190Z,20.20
2023-04-11T20:01:46.878Z,20.20
2023-04-11T20:04:15.470Z,20.20
2023-04-11T20:06:44.040Z,20.20
2023-04-11T20:09:11.599Z,20.20
2023-04-11T20:11:39.477Z,20.20
2023-04-11T20:14:07.045Z,20.10
2023-04-11T20:16:33.773Z,20.20
2023-04-11T20:19:01.847Z,20.10
2023-04-11T20:21:28.725Z,20.10
2023-04-11T20:23:55.919Z,20.20
2023-04-11T20:26:22.910Z,20.10
2023-04-11T20:28:50.245Z,20.10
2023-04-11T20:31:16.955Z,20.10
2023-04-11T20:33:45.289Z,20.00
2023-04-11T20:36:11.955Z,20.10
2023-04-11T20:38:38.584Z,20.10
2023-04-11T20:41:06.152Z,20.10
2023-04-11T20:43:32.771Z,20.00
2023-04-11T20:45:59.449Z,20.10
2023-04-11T20:48:29.506Z,20.00
2023-04-11T20:50:56.255Z,20.00
2023-04-11T20:53:22.942Z,20.00
2023-04-11T20:55:49.664Z,20.00
2023-04-11T20:58:18.750Z,20.00
2023-04-11T21:00:45.527Z,20.00
2023-04-11T21:03:12.416Z,20.00
2023-04-11T21:05:44.220Z,20.00
2023-04-11T21:08:14.180Z,20.00
2023-04-11T21:10:40.999Z,20.00
2023-04-11T21:13:07.664Z,20.00
2023-04-11T21:15:34.895Z,20.00
2023-04-11T21:18:01.821Z,20.00
2023-04-11T21:20:28.620Z,20.00
2023-04-11T21:22:55.404Z,20.00
2023-04-11T21:25:24.504Z,20.00
2023-04-11T21:27:51.152Z,19.90
2023-04-11T21:30:18.055Z,19.90
2023-04-11T21:32:44.766Z,19.90
2023-04-11T21:35:12.032Z,19.90
2023-04-11T21:37:38.820Z,19.90
2023-04-11T21:40:06.332Z,19.90
2023-04-11T21:42:32.921Z,19.90
2023-04-11T21:44:59.580Z,19.90
2023-04-11T21:47:26.314Z,19.90
2023-04-11T21:49:52.965Z,19.90
2023-04-11T21:52:19.579Z,19.90
2023-04-11T21:54:46.373Z,19.90
2023-04-11T21:57:12.989Z,19.80
2023-04-11T21:59:39.737Z,19.90
2023-04-11T22:02:06.809Z,19.80
2023-04-11T22:04:47.368Z,19.80
2023-04-11T22:07:18.285Z,19.90
2023-04-11T22:09:46.939Z,19.90
2023-04-11T22:12:17.365Z,19.90
2023-04-11T22:14:44.036Z,19.80
2023-04-11T22:17:10.737Z,19.80
2023-04-11T22:19:37.348Z,19.80
2023-04-11T22:22:08.054Z,19.80
2023-04-11T22:24:34.946Z,19.80
2023-04-11T22:27:04.345Z,19.80
2023-04-11T22:29:31.297Z,19.80
2023-04-11T22:31:59.406Z,19.80
2023-04-11T22:34:27.027Z,19.80
2023-04-11T22:36:53.622Z,19.80
2023-04-11T22:39:21.312Z,19.80
2023-04-11T22:41:50.532Z,19.80
2023-04-11T22:44:18.032Z,19.80
2023-04-11T22:47:06.050Z,19.80
2023-04-11T22:49:41.875Z,19.80
2023-04-11T22:52:10.563Z,19.80
2023-04-11T22:54:38.350Z,19.70
2023-04-11T22:57:04.994Z,19.80
2023-04-11T22:59:31.651Z,19.70
2023-04-11T23:01:58.496Z,19.70
2023-04-11T23:04:25.303Z,19.70
2023-04-11T23:06:53.458Z,19.70
2023-04-11T23:09:20.663Z,19.70
2023-04-11T23:11:47.699Z,19.70
2023-04-11T23:14:15.340Z,19.70
2023-04-11T23:16:43.428Z,19.70
2023-04-11T23:19:10.325Z,19.70
2023-04-11T23:21:37.751Z,19.70
2023-04-11T23:24:06.561Z,19.70
2023-04-11T23:26:33.421Z,19.70
2023-04-11T23:29:02.150Z,19.70
2023-04-11T23:31:30.328Z,19.70
2023-04-11T23:33:57.151Z,19.70
2023-04-11T23:36:23.955Z,19.70
2023-04-11T23:38:50.660Z,19.70
2023-04-11T23:41:17.351Z,19.70
2023-04-11T23:43:44.011Z,19.70
2023-04-11T23:46:10.881Z,19.70
2023-04-11T23:48:37.532Z,19.70
2023-04-11T23:51:04.496Z,19.70
2023-04-11T23:53:31.655Z,19.70
2023-04-11T23:55:58.357Z,19.60
2023-04-11T23:58:25.028Z,19.60
